Overview Statistics Trail Chart Weather Telemetry Raw packets
 

This is the latest recevied weather packets stored in our database for station/object YD2CLX-11. If no packets are shown the sender has not sent any weather packets the latest 10 day(s).

<< 10 11 12 13 14 15 16 >>
Time Temp. Humidity Pressure Rain* Wind** Luminosity Snow
1788432006 30° C 64% 997.4 hPa - - - -
1788431405 30° C 63% 997.2 hPa - - - -
1788430804 30.56° C 61% 997.2 hPa - - - -
1788430202 31.11° C 60% 996.9 hPa - - - -
1788429602 31.11° C 60% 996.7 hPa - - - -
1788428999 31.67° C 57% 996.5 hPa - - - -
1788428399 32.78° C 54% 996.3 hPa - - - -
1788427798 32.78° C 54% 996.1 hPa - - - -
1788424189 33.89° C 49% 995.5 hPa - - - -
1788423587 34.44° C 48% 995.4 hPa - - - -
1788422986 35° C 46% 995.3 hPa - - - -
1788422385 35.56° C 46% 995.4 hPa - - - -
1788421784 35.56° C 46% 995.4 hPa - - - -
1788421183 36.67° C 43% 995.3 hPa - - - -
1788420582 36.11° C 43% 995.4 hPa - - - -
1788419981 36.67° C 42% 995.4 hPa - - - -
1788419380 36.11° C 43% 995.5 hPa - - - -
1788418779 36.11° C 45% 995.7 hPa - - - -
1788418178 35.56° C 46% 995.9 hPa - - - -
1788417577 35.56° C 46% 996 hPa - - - -
1788416976 36.11° C 44% 996.2 hPa - - - -
1788416375 36.67° C 42% 996.3 hPa - - - -
1788415774 35.56° C 44% 996.4 hPa - - - -
1788415174 36.11° C 43% 996.7 hPa - - - -
1788414572 36.11° C 43% 996.9 hPa - - - -

* Rain since midnight (hover to see other rain measurements)
** Current wind speed in m/s (hover to see current wind gust speed)